Time;durP1;ratioP1;P1;durP2;ratioP2;P2;SDS_P1;SDS_P2;PMS_P1;PMS_P2;Temp;Humidity;BMP_temperature;BMP_pressure;BME280_temperature;BME280_humidity;BME280_pressure;Samples;Min_cycle;Max_cycle;Signal;HPM_P1;HPM_P2
2023/10/09 00:01:38;;;;;;;3.45;1.58;;;13.40;99.90;;;;;;5056378;28;20046;-73
2023/10/09 00:04:24;;;;;;;3.92;1.58;;;13.40;99.90;;;;;;5058939;28;20036;-73
2023/10/09 00:07:11;;;;;;;5.20;1.20;;;13.40;99.90;;;;;;5078992;28;20067;-73
2023/10/09 00:09:57;;;;;;;3.33;1.40;;;13.40;99.90;;;;;;5046656;28;20036;-73
2023/10/09 00:12:43;;;;;;;3.47;1.55;;;13.40;99.90;;;;;;5053163;28;20060;-73
2023/10/09 00:15:33;;;;;;;3.30;1.20;;;13.40;99.90;;;;;;5065784;28;20041;-73
2023/10/09 00:18:28;;;;;;;6.38;1.85;;;13.40;99.90;;;;;;5046515;28;20106;-73
2023/10/09 00:21:20;;;;;;;6.47;1.60;;;13.40;99.90;;;;;;5053407;28;20041;-73
2023/10/09 00:24:13;;;;;;;4.45;1.38;;;13.40;99.90;;;;;;5066411;28;20033;-73
2023/10/09 00:27:11;;;;;;;3.78;1.35;;;13.40;99.90;;;;;;5058292;28;20040;-73
2023/10/09 00:29:57;;;;;;;4.40;1.50;;;13.30;99.90;;;;;;5040001;28;20040;-73
2023/10/09 00:32:53;;;;;;;4.10;1.20;;;13.30;99.90;;;;;;5051104;28;20227;-73
2023/10/09 00:35:54;;;;;;;4.50;1.40;;;13.30;99.90;;;;;;5055794;28;20098;-73
2023/10/09 00:38:44;;;;;;;6.20;1.40;;;13.30;99.90;;;;;;5052546;28;20048;-73
2023/10/09 00:41:35;;;;;;;4.82;1.30;;;13.30;99.90;;;;;;5059019;28;20361;-73
2023/10/09 00:44:21;;;;;;;3.92;1.92;;;13.30;99.90;;;;;;5060507;28;20040;-73
2023/10/09 00:47:20;;;;;;;4.13;1.23;;;13.30;99.90;;;;;;5054694;28;20044;-73
2023/10/09 00:53:03;;;;;;;6.13;1.42;;;13.20;99.90;;;;;;5079645;28;20037;-74
2023/10/09 00:55:55;;;;;;;4.78;1.52;;;13.10;99.90;;;;;;5063396;28;20040;-73
2023/10/09 00:58:43;;;;;;;3.83;1.40;;;13.10;99.90;;;;;;5063835;28;20129;-73
2023/10/09 01:01:34;;;;;;;6.60;1.55;;;13.10;99.90;;;;;;5033002;28;20032;-73
2023/10/09 01:04:22;;;;;;;4.45;1.42;;;13.00;99.90;;;;;;5037910;28;20480;-73
2023/10/09 01:07:15;;;;;;;3.03;1.23;;;12.90;99.90;;;;;;5057339;28;20073;-73
2023/10/09 01:10:22;;;;;;;5.47;1.80;;;12.90;99.90;;;;;;5080690;28;20059;-73
2023/10/09 01:13:09;;;;;;;3.08;1.20;;;12.90;99.90;;;;;;5049697;28;20075;-73
2023/10/09 01:15:57;;;;;;;4.22;1.67;;;12.90;99.90;;;;;;5063179;28;20037;-73
2023/10/09 01:18:44;;;;;;;;;;;12.90;99.90;;;;;;5048389;28;20078;-73
2023/10/09 01:21:31;;;;;;;3.10;1.10;;;12.80;99.90;;;;;;5051635;28;19913;-73
2023/10/09 01:24:18;;;;;;;4.85;2.15;;;12.80;99.90;;;;;;5043716;28;20036;-73
2023/10/09 01:27:11;;;;;;;3.08;1.63;;;12.80;99.90;;;;;;5036664;28;20119;-73
2023/10/09 01:29:59;;;;;;;4.70;1.50;;;12.80;99.90;;;;;;5067953;28;20376;-73
2023/10/09 01:32:45;;;;;;;4.07;1.33;;;12.80;99.90;;;;;;5064988;28;20430;-73
2023/10/09 01:35:33;;;;;;;6.28;2.00;;;12.80;99.90;;;;;;5042909;28;20048;-73
2023/10/09 01:38:30;;;;;;;;;;;12.80;99.90;;;;;;5057193;28;20044;-73
2023/10/09 01:41:19;;;;;;;5.20;1.58;;;12.80;99.90;;;;;;5065897;28;19924;-73
2023/10/09 01:44:10;;;;;;;6.18;1.80;;;12.80;99.90;;;;;;5056172;28;20490;-73
2023/10/09 01:46:57;;;;;;;4.13;1.50;;;12.80;99.90;;;;;;5074925;28;20055;-73
2023/10/09 01:49:43;;;;;;;5.28;1.52;;;12.80;99.90;;;;;;5081648;28;20369;-73
2023/10/09 01:52:30;;;;;;;5.13;1.70;;;12.80;99.90;;;;;;5084910;28;20089;-73
2023/10/09 01:55:29;;;;;;;4.20;1.70;;;12.70;99.90;;;;;;5083073;28;20047;-73
2023/10/09 02:01:09;;;;;;;3.15;1.60;;;12.80;99.90;;;;;;5084847;28;20058;-73
2023/10/09 02:04:03;;;;;;;4.15;1.55;;;12.80;99.90;;;;;;5064620;28;20082;-73
2023/10/09 02:06:52;;;;;;;3.75;1.40;;;12.80;99.90;;;;;;5082784;28;20051;-73
2023/10/09 02:09:46;;;;;;;3.50;1.50;;;12.90;99.90;;;;;;5097980;28;20039;-73
2023/10/09 02:12:33;;;;;;;4.18;1.60;;;12.90;99.90;;;;;;5094878;28;20039;-73
2023/10/09 02:15:40;;;;;;;5.03;1.70;;;12.90;99.90;;;;;;5094292;28;20122;-73
2023/10/09 02:18:26;;;;;;;3.30;1.50;;;12.90;99.90;;;;;;5099098;28;20068;-73
2023/10/09 02:21:12;;;;;;;5.63;1.63;;;13.00;99.90;;;;;;5096471;28;20047;-73
2023/10/09 02:24:02;;;;;;;4.43;1.63;;;13.00;99.90;;;;;;5094901;28;20035;-73
2023/10/09 02:29:38;;;;;;;5.45;1.80;;;12.90;99.90;;;;;;5101887;28;20044;-74
2023/10/09 02:32:28;;;;;;;8.18;1.80;;;13.00;99.90;;;;;;5106710;28;20047;-75
2023/10/09 02:35:38;;;;;;;4.15;1.60;;;13.00;99.90;;;;;;5082003;28;20108;-75
2023/10/09 02:38:24;;;;;;;3.33;1.40;;;13.00;99.90;;;;;;5082015;28;20066;-76
2023/10/09 02:44:10;;;;;;;7.47;1.58;;;13.10;99.90;;;;;;5085881;28;20097;-76
2023/10/09 02:46:58;;;;;;;4.80;1.63;;;13.10;99.90;;;;;;5087772;28;20051;-76
2023/10/09 02:49:45;;;;;;;4.82;1.50;;;13.10;99.90;;;;;;5058676;28;20059;-76
2023/10/09 02:52:40;;;;;;;4.85;1.50;;;13.10;99.90;;;;;;5073046;28;20044;-75
2023/10/09 02:55:27;;;;;;;4.10;1.63;;;13.10;99.90;;;;;;5071265;28;20035;-76
2023/10/09 02:58:20;;;;;;;3.20;1.50;;;13.20;99.90;;;;;;5074542;28;20044;-75
2023/10/09 03:01:13;;;;;;;3.53;1.42;;;13.20;99.90;;;;;;5038202;28;20472;-75
2023/10/09 03:04:02;;;;;;;4.18;1.70;;;13.20;99.90;;;;;;5076755;28;20126;-75
2023/10/09 03:06:51;;;;;;;5.38;1.77;;;13.20;99.90;;;;;;5056162;28;20089;-75
2023/10/09 03:09:37;;;;;;;5.03;1.67;;;13.20;99.90;;;;;;5071781;28;20043;-75
2023/10/09 03:12:26;;;;;;;3.85;1.35;;;13.20;99.90;;;;;;5060304;28;20048;-75
2023/10/09 03:15:12;;;;;;;4.18;1.55;;;13.30;99.90;;;;;;5052540;28;20138;-75
2023/10/09 03:17:59;;;;;;;5.32;1.80;;;13.30;99.90;;;;;;5085876;28;20123;-75
2023/10/09 03:20:47;;;;;;;7.25;2.28;;;13.30;99.90;;;;;;5077085;28;20457;-75
2023/10/09 03:23:34;;;;;;;7.13;2.03;;;13.20;99.90;;;;;;5065438;28;20071;-75
2023/10/09 03:26:20;;;;;;;5.00;1.70;;;13.20;99.90;;;;;;5074990;28;20032;-76
2023/10/09 03:29:06;;;;;;;4.78;1.42;;;13.20;99.90;;;;;;5063076;28;20143;-76
2023/10/09 03:31:53;;;;;;;4.50;1.60;;;13.20;99.90;;;;;;5075037;28;20131;-73
2023/10/09 03:34:39;;;;;;;5.88;1.67;;;13.20;99.90;;;;;;5075593;28;20166;-73
2023/10/09 03:37:34;;;;;;;5.90;1.70;;;13.20;99.90;;;;;;5057979;28;20044;-73
2023/10/09 03:40:21;;;;;;;6.30;1.83;;;13.10;99.90;;;;;;5079529;28;20044;-73
2023/10/09 03:43:10;;;;;;;3.50;1.50;;;13.10;99.90;;;;;;5077878;28;20369;-73
2023/10/09 03:45:57;;;;;;;;;;;13.00;99.90;;;;;;5060769;28;20056;-73
2023/10/09 03:48:45;;;;;;;6.47;1.80;;;13.00;99.90;;;;;;5047471;28;19928;-73
2023/10/09 03:51:31;;;;;;;4.95;1.65;;;12.90;99.90;;;;;;5041672;28;20291;-73
2023/10/09 03:54:20;;;;;;;5.55;1.80;;;12.90;99.90;;;;;;5036244;28;20040;-73
2023/10/09 03:57:06;;;;;;;4.30;1.80;;;12.90;99.90;;;;;;5063708;28;20051;-73
2023/10/09 03:59:52;;;;;;;4.90;1.70;;;12.90;99.90;;;;;;5067580;28;20063;-73
2023/10/09 04:02:38;;;;;;;4.97;1.77;;;12.80;99.90;;;;;;5044190;28;20535;-73
2023/10/09 04:05:24;;;;;;;6.80;2.40;;;12.80;99.90;;;;;;5059333;28;20052;-73
2023/10/09 04:08:29;;;;;;;5.57;1.83;;;12.70;99.90;;;;;;5043722;28;20416;-73
2023/10/09 04:11:22;;;;;;;4.95;1.65;;;12.70;99.90;;;;;;5065630;28;20036;-73
2023/10/09 04:14:12;;;;;;;5.32;2.20;;;12.60;99.90;;;;;;5059669;28;20051;-73
2023/10/09 04:17:06;;;;;;;5.45;1.77;;;12.60;99.90;;;;;;5054398;28;20036;-76
2023/10/09 04:20:55;;;;;;;6.35;1.98;;;12.60;99.90;;;;;;5047020;28;20048;-76
2023/10/09 04:23:06;;;;;;;4.50;1.80;;;12.50;99.90;;;;;;5057928;28;20377;-75
2023/10/09 04:25:52;;;;;;;6.57;2.10;;;12.50;99.90;;;;;;5059366;28;20524;-76
2023/10/09 04:28:42;;;;;;;4.68;2.10;;;12.50;99.90;;;;;;5050242;28;20410;-76
2023/10/09 04:31:37;;;;;;;5.60;2.00;;;12.50;99.90;;;;;;5046068;28;20044;-76
2023/10/09 04:34:28;;;;;;;4.07;1.98;;;12.60;99.90;;;;;;5047964;28;20093;-73
2023/10/09 04:40:11;;;;;;;9.45;2.55;;;12.60;99.90;;;;;;5069421;28;20075;-74
2023/10/09 04:42:59;;;;;;;5.95;2.30;;;12.60;99.90;;;;;;5057021;28;20341;-74
2023/10/09 04:46:06;;;;;;;6.43;2.38;;;12.60;99.90;;;;;;5071434;28;20053;-73
2023/10/09 04:48:52;;;;;;;5.47;2.35;;;12.60;99.90;;;;;;5072394;28;20052;-73
2023/10/09 04:51:58;;;;;;;5.38;2.40;;;12.60;99.90;;;;;;5065381;28;20041;-73
2023/10/09 04:58:08;;;;;;;7.82;2.45;;;12.60;99.90;;;;;;5074296;28;20044;-73
2023/10/09 05:03:44;;;;;;;4.78;2.53;;;12.60;99.90;;;;;;5070692;28;20047;-73
2023/10/09 05:06:42;;;;;;;6.95;2.45;;;12.70;99.90;;;;;;5073046;28;20099;-73
2023/10/09 05:09:55;;;;;;;4.65;2.50;;;12.70;99.90;;;;;;5073599;28;20036;-73
2023/10/09 05:12:34;;;;;;;9.27;2.60;;;12.70;99.90;;;;;;5061173;28;20417;-73
2023/10/09 05:15:26;;;;;;;10.00;2.97;;;12.80;99.90;;;;;;5060445;28;20044;-73
2023/10/09 05:18:16;;;;;;;5.93;2.70;;;12.80;99.90;;;;;;5068114;28;20044;-73
2023/10/09 05:24:19;;;;;;;8.45;3.85;;;12.90;99.90;;;;;;5062965;28;20093;-74
2023/10/09 05:27:45;;;;;;;10.90;4.13;;;12.80;99.90;;;;;;5055402;28;20118;-74
2023/10/09 05:30:26;;;;;;;8.50;3.42;;;12.80;99.90;;;;;;5061833;28;20044;-74
2023/10/09 05:33:46;;;;;;;9.40;3.90;;;12.90;99.90;;;;;;5059591;28;20040;-76
2023/10/09 05:39:58;;;;;;;9.10;4.00;;;12.90;99.90;;;;;;5073522;28;20040;-77
2023/10/09 05:42:28;;;;;;;9.02;4.30;;;13.00;99.90;;;;;;5067575;28;20072;-77
2023/10/09 05:54:11;;;;;;;8.07;4.30;;;13.10;99.90;;;;;;5088285;28;20471;-76
2023/10/09 05:58:08;;;;;;;12.77;5.45;;;13.10;99.90;;;;;;5098855;28;20036;-76
2023/10/09 06:06:07;;;;;;;19.58;8.13;;;13.20;99.90;;;;;;5080285;28;20454;-77
2023/10/09 06:12:33;;;;;;;28.17;13.95;;;13.30;99.90;;;;;;5080464;28;20367;-76
2023/10/09 06:15:19;;;;;;;26.05;13.88;;;13.30;99.90;;;;;;5089072;28;20032;-76
2023/10/09 06:18:32;;;;;;;32.10;17.50;;;13.40;99.90;;;;;;5062731;28;20043;-76
2023/10/09 06:24:16;;;;;;;39.97;20.33;;;13.50;99.90;;;;;;5093933;28;20048;-76
2023/10/09 06:32:34;;;;;;;60.83;29.83;;;13.60;99.90;;;;;;5093571;28;20126;-75
2023/10/09 06:35:30;;;;;;;57.13;28.00;;;13.60;99.90;;;;;;5087442;28;20050;-76
2023/10/09 06:38:22;;;;;;;67.30;33.78;;;13.60;99.90;;;;;;5083687;28;20482;-76
2023/10/09 06:44:52;;;;;;;71.72;35.75;;;13.80;99.90;;;;;;5098232;28;20035;-76
2023/10/09 06:47:18;;;;;;;73.82;33.85;;;13.90;99.90;;;;;;5102894;28;20052;-77
2023/10/09 06:56:06;;;;;;;82.47;36.58;;;14.00;99.90;;;;;;5086297;28;20047;-77
2023/10/09 06:58:55;;;;;;;76.03;37.30;;;14.00;99.90;;;;;;5082199;28;20050;-77
2023/10/09 07:01:45;;;;;;;80.40;38.47;;;14.00;99.90;;;;;;5081505;28;20048;-77
2023/10/09 07:07:20;;;;;;;75.15;38.83;;;14.00;99.90;;;;;;5083705;28;20035;-77
2023/10/09 07:13:12;;;;;;;70.95;35.50;;;14.00;99.90;;;;;;5083529;28;20522;-78
2023/10/09 07:19:09;;;;;;;68.97;33.35;;;14.00;99.90;;;;;;5095071;28;20052;-77
2023/10/09 07:21:55;;;;;;;56.03;28.17;;;14.00;99.90;;;;;;5075378;28;20032;-77
2023/10/09 07:24:44;;;;;;;58.53;29.13;;;14.00;99.90;;;;;;5075671;28;20040;-77
2023/10/09 07:27:48;;;;;;;58.92;27.42;;;14.00;99.90;;;;;;5075610;28;20035;-77
2023/10/09 07:33:30;;;;;;;53.17;26.35;;;14.00;99.90;;;;;;5078547;28;20120;-77
2023/10/09 07:36:29;;;;;;;59.83;28.45;;;14.00;99.90;;;;;;5074007;28;20040;-77
2023/10/09 07:39:16;;;;;;;58.67;29.67;;;14.00;99.90;;;;;;5087976;28;20043;-77
2023/10/09 07:42:26;;;;;;;68.18;29.45;;;14.00;99.90;;;;;;5065791;28;20100;-77
2023/10/09 07:45:54;;;;;;;64.20;31.30;;;14.00;99.90;;;;;;5070068;28;20384;-78
2023/10/09 07:48:25;;;;;;;64.22;30.83;;;14.10;99.90;;;;;;5089951;28;20046;-77
2023/10/09 07:51:19;;;;;;;67.63;31.48;;;14.10;99.90;;;;;;5097364;28;20349;-77
2023/10/09 07:54:09;;;;;;;68.90;30.80;;;14.10;99.90;;;;;;5086405;28;20043;-76
2023/10/09 07:57:08;;;;;;;72.20;34.20;;;14.10;99.90;;;;;;5076115;28;20050;-76
2023/10/09 07:59:54;;;;;;;69.38;31.42;;;14.10;99.90;;;;;;5061847;28;20079;-77
2023/10/09 08:02:41;;;;;;;62.63;32.70;;;14.10;99.90;;;;;;5070058;28;20047;-76
2023/10/09 08:05:33;;;;;;;64.03;31.50;;;14.10;99.90;;;;;;5082831;28;20078;-77
2023/10/09 08:17:23;;;;;;;63.10;28.92;;;14.20;99.90;;;;;;5094468;28;20047;-77
2023/10/09 08:20:12;;;;;;;73.78;30.80;;;14.30;99.90;;;;;;5087039;28;20039;-77
2023/10/09 08:22:58;;;;;;;54.67;28.08;;;14.30;99.90;;;;;;5064988;28;20422;-77
2023/10/09 08:25:57;;;;;;;52.80;27.90;;;14.30;99.90;;;;;;5076260;28;20046;-77
2023/10/09 08:28:43;;;;;;;61.03;28.55;;;14.30;99.90;;;;;;5077802;28;20138;-77
2023/10/09 08:31:44;;;;;;;51.88;26.23;;;14.30;99.90;;;;;;5074385;28;20054;-77
2023/10/09 08:34:48;;;;;;;46.85;24.13;;;14.40;99.90;;;;;;5070550;28;20376;-77
2023/10/09 08:37:34;;;;;;;50.03;24.58;;;14.40;99.90;;;;;;5060204;28;20397;-77
2023/10/09 08:40:20;;;;;;;50.63;25.85;;;14.50;99.90;;;;;;5078501;28;20368;-76
2023/10/09 08:43:17;;;;;;;61.20;29.25;;;14.50;99.90;;;;;;5065460;28;20356;-77
2023/10/09 08:46:03;;;;;;;46.58;25.67;;;14.50;99.90;;;;;;5070620;28;20139;-77
2023/10/09 08:48:49;;;;;;;69.55;33.33;;;14.50;99.90;;;;;;5076190;28;20043;-76
2023/10/09 08:51:35;;;;;;;60.85;30.73;;;14.50;99.90;;;;;;5060315;28;20039;-77
2023/10/09 08:54:21;;;;;;;69.25;30.73;;;14.50;99.90;;;;;;5072618;28;20040;-76
2023/10/09 08:57:09;;;;;;;53.58;26.50;;;14.50;99.90;;;;;;5069033;28;20122;-77
2023/10/09 08:59:56;;;;;;;48.08;24.45;;;14.50;99.90;;;;;;5063747;28;20365;-77
2023/10/09 09:02:43;;;;;;;53.47;28.27;;;14.50;99.90;;;;;;5078255;28;20040;-77
2023/10/09 09:05:35;;;;;;;56.90;27.73;;;14.50;99.90;;;;;;5079628;28;20032;-77
2023/10/09 09:08:28;;;;;;;54.78;28.15;;;14.60;99.90;;;;;;5065060;28;20047;-77
2023/10/09 09:11:25;;;;;;;56.10;26.73;;;14.60;99.90;;;;;;5073941;28;20040;-77
2023/10/09 09:14:18;;;;;;;46.15;24.92;;;14.60;99.90;;;;;;5054310;28;20102;-77
2023/10/09 09:17:10;;;;;;;48.97;25.23;;;14.60;99.90;;;;;;5071999;28;20349;-77
2023/10/09 09:19:57;;;;;;;58.55;28.70;;;14.70;99.90;;;;;;5072139;28;20067;-76
2023/10/09 09:22:58;;;;;;;62.17;30.00;;;14.70;99.90;;;;;;5082405;28;20343;-77
2023/10/09 09:25:46;;;;;;;59.78;28.77;;;14.60;99.90;;;;;;5072653;28;20040;-77
2023/10/09 09:28:38;;;;;;;57.50;26.83;;;14.70;99.90;;;;;;5069165;28;20479;-77
2023/10/09 09:31:24;;;;;;;56.88;28.83;;;14.70;99.90;;;;;;5076410;28;20043;-77
2023/10/09 09:34:17;;;;;;;58.10;29.27;;;14.80;99.90;;;;;;5078802;28;20381;-77
2023/10/09 09:37:04;;;;;;;56.30;27.10;;;14.70;99.90;;;;;;5058912;28;20040;-77
2023/10/09 09:39:51;;;;;;;64.40;31.60;;;14.80;99.90;;;;;;5090255;28;20066;-77
2023/10/09 09:42:37;;;;;;;64.72;32.65;;;14.70;99.90;;;;;;5065636;28;20048;-77
2023/10/09 09:45:24;;;;;;;63.60;31.58;;;14.80;99.90;;;;;;5070744;28;20135;-77
2023/10/09 09:48:10;;;;;;;60.90;32.92;;;14.80;99.90;;;;;;5049854;28;20044;-76
2023/10/09 09:50:56;;;;;;;70.90;33.53;;;14.80;99.90;;;;;;5047673;28;20090;-76
2023/10/09 09:53:49;;;;;;;69.90;34.40;;;14.80;99.90;;;;;;5061415;28;20055;-76
2023/10/09 09:56:35;;;;;;;69.05;33.78;;;14.80;99.90;;;;;;5048757;28;20037;-75
2023/10/09 09:59:27;;;;;;;71.03;33.42;;;14.80;99.90;;;;;;5043796;28;20135;-76
2023/10/09 10:02:20;;;;;;;66.65;33.08;;;14.80;99.90;;;;;;5053429;28;20036;-76
2023/10/09 10:05:07;;;;;;;61.35;32.05;;;14.70;99.90;;;;;;5064191;28;20101;-77
2023/10/09 10:07:55;;;;;;;58.17;30.33;;;14.70;99.90;;;;;;5049728;28;20036;-77
2023/10/09 10:11:23;;;;;;;62.70;32.60;;;14.80;99.90;;;;;;5042341;28;20037;-77
2023/10/09 10:13:50;;;;;;;64.30;33.75;;;14.70;99.90;;;;;;5063685;28;20097;-77
2023/10/09 10:16:59;;;;;;;66.68;33.33;;;14.70;99.90;;;;;;5069652;28;20119;-73
2023/10/09 10:20:01;;;;;;;67.30;32.13;;;14.80;99.90;;;;;;5062008;28;20542;-73
2023/10/09 10:22:47;;;;;;;64.60;33.50;;;14.80;99.90;;;;;;5070470;28;20123;-73
2023/10/09 10:25:35;;;;;;;69.90;35.00;;;14.70;99.90;;;;;;5048470;28;20469;-73
2023/10/09 10:28:28;;;;;;;66.10;32.70;;;14.80;99.90;;;;;;5045864;28;20469;-73
2023/10/09 10:31:15;;;;;;;63.25;31.67;;;14.80;99.90;;;;;;5047429;28;20474;-73
2023/10/09 10:34:06;;;;;;;64.90;31.00;;;14.80;99.90;;;;;;5059354;28;20040;-72
2023/10/09 10:36:58;;;;;;;61.08;30.75;;;14.80;99.90;;;;;;5069145;28;20039;-73
2023/10/09 10:39:59;;;;;;;62.53;31.80;;;14.80;99.90;;;;;;5047543;28;20045;-73
2023/10/09 10:46:00;;;;;;;67.93;34.88;;;14.90;99.90;;;;;;5049779;28;20127;-73
2023/10/09 10:48:49;;;;;;;66.20;35.22;;;14.90;99.90;;;;;;5037476;28;20037;-73
2023/10/09 10:51:37;;;;;;;68.30;37.97;;;14.90;99.90;;;;;;5054302;28;20044;-73
2023/10/09 10:57:52;;;;;;;64.78;37.22;;;14.90;99.90;;;;;;5047894;28;20048;-73
2023/10/09 11:06:41;;;;;;;59.97;36.03;;;14.90;99.90;;;;;;5053718;28;20067;-73
2023/10/09 11:09:37;;;;;;;59.53;35.08;;;14.90;99.90;;;;;;5049468;28;20037;-73
2023/10/09 11:12:23;;;;;;;59.58;33.47;;;14.90;99.90;;;;;;5040772;28;20234;-73
2023/10/09 11:18:13;;;;;;;55.88;34.58;;;15.00;99.90;;;;;;5068035;28;20036;-73
2023/10/09 11:26:40;;;;;;;60.42;35.60;;;15.00;99.90;;;;;;5055749;28;20028;-73
2023/10/09 11:32:22;;;;;;;58.92;35.92;;;15.00;99.90;;;;;;5067037;28;20041;-73
2023/10/09 11:35:15;;;;;;;60.00;36.28;;;15.00;99.90;;;;;;5052308;28;20068;-73
2023/10/09 11:38:20;;;;;;;54.40;33.47;;;15.00;99.90;;;;;;5040271;28;20044;-73
2023/10/09 11:41:19;;;;;;;60.25;36.50;;;15.00;99.90;;;;;;5054898;28;20029;-73
2023/10/09 11:44:05;;;;;;;51.28;35.17;;;15.00;99.90;;;;;;5056226;28;20041;-73
2023/10/09 11:46:58;;;;;;;50.22;34.60;;;15.10;99.90;;;;;;5065223;28;20105;-73
2023/10/09 11:50:11;;;;;;;56.67;33.92;;;15.10;99.90;;;;;;5043989;28;20473;-73
2023/10/09 11:53:45;;;;;;;52.60;33.78;;;15.10;99.90;;;;;;5067001;28;20041;-72
2023/10/09 11:56:04;;;;;;;51.72;31.02;;;15.10;99.90;;;;;;5048143;28;20051;-73
2023/10/09 11:58:51;;;;;;;50.10;31.13;;;15.10;99.90;;;;;;5063162;28;20059;-73
2023/10/09 12:01:42;;;;;;;42.63;27.85;;;15.00;99.90;;;;;;5052732;28;20032;-73
2023/10/09 12:04:30;;;;;;;40.20;26.65;;;15.00;99.90;;;;;;5055520;28;20094;-73
2023/10/09 12:07:20;;;;;;;36.63;24.10;;;15.00;99.90;;;;;;5064165;28;20071;-73
2023/10/09 12:10:10;;;;;;;37.15;23.63;;;15.00;99.90;;;;;;5068796;28;20048;-73
2023/10/09 12:12:58;;;;;;;35.60;24.08;;;15.00;99.90;;;;;;5051595;28;20484;-73
2023/10/09 12:15:46;;;;;;;34.72;20.75;;;15.10;99.90;;;;;;5044988;28;20060;-73
2023/10/09 12:18:34;;;;;;;32.22;21.40;;;15.10;99.90;;;;;;5044804;28;20041;-74
2023/10/09 12:21:20;;;;;;;36.67;19.98;;;15.00;99.90;;;;;;5063476;28;20037;-73
2023/10/09 12:24:11;;;;;;;33.00;21.42;;;15.00;99.90;;;;;;5047981;28;20903;-73
2023/10/09 12:26:57;;;;;;;36.05;22.77;;;15.00;99.90;;;;;;5064154;28;20377;-73
2023/10/09 12:29:45;;;;;;;36.25;21.70;;;15.00;99.90;;;;;;5066030;28;20044;-73
2023/10/09 12:32:36;;;;;;;38.53;24.00;;;15.00;99.90;;;;;;5064943;28;20068;-73
2023/10/09 12:35:24;;;;;;;46.03;26.52;;;15.00;99.90;;;;;;5067394;28;20072;-73
2023/10/09 12:38:12;;;;;;;46.97;27.42;;;15.00;99.90;;;;;;5049056;28;20477;-73
2023/10/09 12:41:08;;;;;;;40.07;25.43;;;15.10;99.90;;;;;;5054425;28;20469;-73
2023/10/09 12:43:54;;;;;;;38.17;23.25;;;15.00;99.90;;;;;;5055098;28;20040;-72
2023/10/09 12:46:42;;;;;;;40.33;24.63;;;15.00;99.90;;;;;;5064202;28;20527;-73
2023/10/09 12:49:28;;;;;;;42.60;24.42;;;15.00;99.90;;;;;;5066446;28;20052;-73
2023/10/09 12:52:17;;;;;;;39.33;25.20;;;15.10;99.90;;;;;;5064661;28;20045;-73
2023/10/09 12:55:07;;;;;;;37.28;25.90;;;15.10;99.90;;;;;;5042472;28;20432;-73
2023/10/09 12:57:54;;;;;;;40.72;26.85;;;15.00;99.90;;;;;;5059038;28;20045;-73
2023/10/09 13:00:44;;;;;;;40.33;27.00;;;15.10;99.90;;;;;;5040034;28;20411;-73
2023/10/09 13:03:32;;;;;;;40.17;25.95;;;15.10;99.90;;;;;;5039400;28;20032;-72
2023/10/09 13:06:23;;;;;;;38.78;24.55;;;15.10;99.90;;;;;;5052785;28;20473;-73
2023/10/09 13:09:13;;;;;;;43.38;28.20;;;15.10;99.90;;;;;;5054793;28;20048;-73
2023/10/09 13:12:00;;;;;;;37.35;25.13;;;15.10;99.90;;;;;;5056747;28;20076;-73
2023/10/09 13:14:49;;;;;;;41.70;27.25;;;15.20;99.90;;;;;;5064915;28;20071;-73
2023/10/09 13:17:38;;;;;;;40.53;26.23;;;15.10;99.90;;;;;;5058148;28;20055;-73
2023/10/09 13:20:26;;;;;;;38.03;25.50;;;15.10;99.90;;;;;;5070843;28;20082;-73
2023/10/09 13:23:15;;;;;;;39.78;25.30;;;15.20;99.90;;;;;;5037542;28;20535;-73
2023/10/09 13:26:08;;;;;;;33.47;24.00;;;15.20;99.90;;;;;;5068296;28;20049;-73
2023/10/09 13:28:54;;;;;;;33.95;24.30;;;15.20;99.90;;;;;;5058424;28;20524;-73
2023/10/09 13:31:46;;;;;;;35.88;23.15;;;15.20;99.90;;;;;;5043760;28;20048;-73
2023/10/09 13:34:33;;;;;;;29.92;20.30;;;15.30;99.90;;;;;;5063667;28;20032;-74
2023/10/09 13:37:22;;;;;;;29.90;20.15;;;15.30;99.90;;;;;;5065781;28;20048;-73
2023/10/09 13:40:10;;;;;;;31.27;20.20;;;15.20;99.90;;;;;;5053033;28;20474;-73
2023/10/09 13:42:58;;;;;;;28.13;20.45;;;15.30;99.90;;;;;;5054527;28;20073;-73
2023/10/09 13:45:49;;;;;;;32.55;20.17;;;15.30;99.90;;;;;;5055309;28;20465;-73
2023/10/09 13:48:40;;;;;;;26.40;19.27;;;15.30;99.90;;;;;;5069637;28;20378;-73
2023/10/09 13:51:29;;;;;;;24.67;18.90;;;15.30;99.90;;;;;;5055076;28;20537;-74
2023/10/09 13:54:21;;;;;;;;;;;15.30;99.90;;;;;;5035532;28;20044;-73
2023/10/09 13:57:07;;;;;;;31.10;21.30;;;15.40;99.90;;;;;;5066999;28;19912;-73
2023/10/09 13:59:55;;;;;;;29.50;20.40;;;15.40;99.90;;;;;;5036374;28;20052;-73
2023/10/09 14:02:42;;;;;;;;;;;15.40;99.90;;;;;;5057764;28;20044;-74
2023/10/09 14:05:28;;;;;;;28.77;19.95;;;15.40;99.90;;;;;;5071823;28;19939;-74
2023/10/09 14:08:16;;;;;;;34.05;22.80;;;15.40;99.90;;;;;;5070699;28;20116;-77
2023/10/09 14:11:03;;;;;;;28.05;21.17;;;15.50;99.90;;;;;;5066925;28;20051;-77
2023/10/09 14:13:49;;;;;;;30.42;22.80;;;15.40;99.90;;;;;;5049241;28;20115;-77
2023/10/09 14:16:42;;;;;;;28.63;20.70;;;15.50;99.90;;;;;;5063946;28;20040;-77
2023/10/09 14:19:33;;;;;;;29.42;21.48;;;15.50;99.90;;;;;;5049247;28;20527;-77
2023/10/09 14:22:20;;;;;;;25.55;20.45;;;15.50;99.90;;;;;;5068553;28;20040;-77
2023/10/09 14:25:13;;;;;;;28.13;20.70;;;15.50;99.90;;;;;;5035901;28;20040;-77
2023/10/09 14:27:58;;;;;;;30.30;20.88;;;15.60;99.90;;;;;;5052894;28;20298;-75
2023/10/09 14:30:48;;;;;;;27.42;19.77;;;15.60;99.90;;;;;;5052281;28;20045;-74
2023/10/09 14:33:36;;;;;;;26.25;19.63;;;15.60;99.90;;;;;;5067447;28;20036;-74
2023/10/09 14:36:22;;;;;;;25.90;19.00;;;15.60;99.90;;;;;;5067901;28;20048;-74
2023/10/09 14:39:13;;;;;;;25.60;19.38;;;15.70;99.90;;;;;;5051323;28;20064;-74
2023/10/09 14:41:59;;;;;;;23.40;17.92;;;15.70;99.90;;;;;;5070056;28;20062;-74
2023/10/09 14:44:45;;;;;;;29.08;19.38;;;15.70;99.90;;;;;;5066035;28;20299;-74
2023/10/09 14:47:31;;;;;;;26.85;19.30;;;15.70;99.90;;;;;;5085660;28;20081;-74
2023/10/09 14:50:21;;;;;;;24.55;19.20;;;15.70;99.90;;;;;;5082893;28;20054;-74
2023/10/09 14:53:07;;;;;;;21.77;17.67;;;15.70;99.90;;;;;;5089175;28;20031;-74
2023/10/09 14:55:57;;;;;;;24.90;19.52;;;15.80;99.90;;;;;;5066169;28;20043;-74
2023/10/09 14:58:44;;;;;;;24.25;18.73;;;15.80;99.90;;;;;;5063558;28;20073;-74
2023/10/09 15:01:31;;;;;;;23.67;18.52;;;15.80;99.90;;;;;;5092328;28;20039;-76
2023/10/09 15:04:17;;;;;;;27.95;18.73;;;15.80;99.90;;;;;;5108044;28;20363;-77
2023/10/09 15:07:07;;;;;;;26.42;19.48;;;15.80;99.90;;;;;;5071057;28;20035;-77
2023/10/09 15:09:53;;;;;;;23.15;18.55;;;15.80;99.90;;;;;;5067852;28;20039;-77
2023/10/09 15:12:42;;;;;;;28.83;20.42;;;15.80;99.90;;;;;;5058812;28;20043;-77
2023/10/09 15:15:30;;;;;;;28.45;21.63;;;15.80;99.90;;;;;;5081596;28;20047;-77
2023/10/09 15:18:18;;;;;;;26.45;21.67;;;15.80;99.90;;;;;;5064013;28;20079;-76
2023/10/09 15:21:06;;;;;;;28.73;23.52;;;15.80;99.90;;;;;;5062604;28;20047;-76
2023/10/09 15:23:58;;;;;;;29.88;22.10;;;15.80;99.90;;;;;;5060152;28;20556;-76
2023/10/09 15:26:57;;;;;;;31.90;22.58;;;15.80;99.90;;;;;;5066809;28;20112;-76
2023/10/09 15:29:45;;;;;;;32.78;24.98;;;15.80;99.90;;;;;;5080606;28;20086;-76
2023/10/09 15:32:34;;;;;;;33.85;22.67;;;15.80;99.90;;;;;;5087790;28;20406;-77
2023/10/09 15:35:23;;;;;;;32.72;25.73;;;15.80;99.90;;;;;;5075573;28;20475;-77
2023/10/09 15:38:12;;;;;;;29.95;23.00;;;15.90;99.90;;;;;;5080753;28;20134;-76
2023/10/09 15:40:59;;;;;;;41.08;28.20;;;15.90;99.90;;;;;;5085019;28;20506;-77
2023/10/09 15:43:45;;;;;;;40.03;28.67;;;15.80;99.90;;;;;;5067622;28;20054;-77
2023/10/09 15:46:34;;;;;;;43.75;29.92;;;15.90;99.90;;;;;;5064471;28;20063;-77
2023/10/09 15:49:20;;;;;;;36.53;27.08;;;15.90;99.90;;;;;;5067764;28;20036;-77
2023/10/09 15:52:08;;;;;;;36.45;27.25;;;15.90;99.90;;;;;;5081137;28;20342;-77
2023/10/09 15:54:54;;;;;;;36.53;26.17;;;15.90;99.90;;;;;;5084362;28;20039;-77
2023/10/09 15:57:41;;;;;;;39.47;26.80;;;15.90;99.90;;;;;;5092352;28;20123;-76
2023/10/09 16:00:29;;;;;;;29.25;25.83;;;15.90;99.90;;;;;;5083959;28;20035;-77
2023/10/09 16:03:15;;;;;;;26.70;22.38;;;15.90;99.90;;;;;;5083752;28;20039;-76
2023/10/09 16:06:01;;;;;;;27.52;21.52;;;15.90;99.90;;;;;;5077084;28;20035;-77
2023/10/09 16:08:49;;;;;;;26.58;21.25;;;15.90;99.90;;;;;;5063375;28;20426;-77
2023/10/09 16:11:35;;;;;;;29.83;21.55;;;15.90;99.90;;;;;;5058568;28;20044;-76
2023/10/09 16:14:23;;;;;;;24.30;19.42;;;15.90;99.90;;;;;;5078207;28;20126;-76
2023/10/09 16:17:09;;;;;;;23.20;18.27;;;15.90;99.90;;;;;;5083429;28;20035;-74
2023/10/09 16:19:55;;;;;;;18.40;14.50;;;15.90;99.90;;;;;;5078220;28;20105;-73
2023/10/09 16:22:41;;;;;;;22.17;16.60;;;15.90;99.90;;;;;;5091800;28;20059;-73